Time;durP1;ratioP1;P1;durP2;ratioP2;P2;SDS_P1;SDS_P2;PMS_P1;PMS_P2;Temp;Humidity;BMP_temperature;BMP_pressure;BME280_temperature;BME280_humidity;BME280_pressure;Samples;Min_cycle;Max_cycle;Signal;HPM_P1;HPM_P2
2022/01/10 00:00:19;;;;;;;26.42;6.18;;;14.20;99.90;;;;;;4928015;28;113058;-60
2022/01/10 00:02:47;;;;;;;31.25;6.07;;;14.20;99.90;;;;;;4944377;28;115007;-59
2022/01/10 00:05:13;;;;;;;31.13;4.50;;;14.20;99.90;;;;;;4945211;28;112848;-61
2022/01/10 00:07:39;;;;;;;35.17;7.10;;;14.20;99.90;;;;;;4945817;28;112312;-60
2022/01/10 00:10:06;;;;;;;31.30;6.25;;;14.20;99.90;;;;;;4945097;28;112587;-60
2022/01/10 00:12:32;;;;;;;31.40;5.13;;;14.20;99.90;;;;;;4950778;28;115875;-60
2022/01/10 00:14:58;;;;;;;35.40;6.32;;;14.20;99.90;;;;;;4956656;28;113683;-60
2022/01/10 00:17:24;;;;;;;23.77;5.35;;;14.20;99.90;;;;;;4965503;28;112444;-58
2022/01/10 00:19:50;;;;;;;28.23;6.20;;;14.20;99.90;;;;;;4946877;28;114627;-61
2022/01/10 00:22:15;;;;;;;29.52;5.18;;;14.20;99.90;;;;;;4963612;28;114100;-59
2022/01/10 00:24:41;;;;;;;31.50;5.22;;;14.20;99.90;;;;;;4962783;28;112837;-60
2022/01/10 00:27:07;;;;;;;27.35;5.05;;;14.20;99.90;;;;;;4962649;28;112772;-59
2022/01/10 00:29:33;;;;;;;40.00;6.22;;;14.20;99.90;;;;;;4964586;28;112820;-59
2022/01/10 00:31:59;;;;;;;33.05;6.22;;;14.20;99.90;;;;;;4963736;28;114244;-59
2022/01/10 00:34:25;;;;;;;29.25;6.53;;;14.20;99.90;;;;;;4963540;28;112470;-59
2022/01/10 00:36:51;;;;;;;36.72;6.75;;;14.20;99.90;;;;;;4963622;28;113044;-60
2022/01/10 00:39:17;;;;;;;34.53;6.95;;;14.20;99.90;;;;;;4963926;28;112937;-59
2022/01/10 00:41:44;;;;;;;32.17;7.15;;;14.10;99.90;;;;;;4963854;28;112903;-59
2022/01/10 00:44:10;;;;;;;32.72;6.50;;;14.20;99.90;;;;;;4962957;28;112454;-59
2022/01/10 00:46:36;;;;;;;29.13;6.30;;;14.10;99.90;;;;;;4963979;28;112584;-59
2022/01/10 00:49:03;;;;;;;39.05;9.07;;;14.10;99.90;;;;;;4964643;28;112585;-59
2022/01/10 00:51:29;;;;;;;44.85;7.47;;;14.10;99.90;;;;;;4946051;28;114087;-59
2022/01/10 00:53:54;;;;;;;41.08;9.30;;;14.10;99.90;;;;;;4963524;28;112848;-58
2022/01/10 00:56:21;;;;;;;29.55;6.85;;;14.10;99.90;;;;;;4946512;28;112457;-61
2022/01/10 00:58:47;;;;;;;27.30;7.18;;;14.10;99.90;;;;;;4964027;28;112706;-60
2022/01/10 01:01:14;;;;;;;32.13;6.18;;;14.10;99.90;;;;;;4963150;28;113480;-59
2022/01/10 01:03:40;;;;;;;32.97;6.72;;;14.20;99.90;;;;;;4944777;28;113776;-60
2022/01/10 01:06:06;;;;;;;29.80;6.38;;;14.10;99.90;;;;;;4964280;28;112561;-59
2022/01/10 01:08:34;;;;;;;34.67;6.03;;;14.10;99.90;;;;;;4982944;28;112587;-59
2022/01/10 01:16:16;;;;;;;28.92;6.45;;;14.20;99.90;;;;;;4983609;28;112425;-58
2022/01/10 01:24:08;;;;;;;40.58;7.53;;;14.20;99.90;;;;;;4962571;28;112554;-59
2022/01/10 01:26:37;;;;;;;40.55;7.03;;;14.20;99.90;;;;;;4964320;28;112608;-59
2022/01/10 01:29:05;;;;;;;25.02;6.53;;;14.20;99.90;;;;;;4963268;28;112688;-59
2022/01/10 01:31:31;;;;;;;38.25;7.15;;;14.20;99.90;;;;;;4945952;28;114302;-59
2022/01/10 01:33:57;;;;;;;33.95;6.43;;;14.20;99.90;;;;;;4945098;28;112692;-59
2022/01/10 01:36:25;;;;;;;37.80;7.40;;;14.20;99.90;;;;;;4963695;28;112462;-59
2022/01/10 01:38:53;;;;;;;33.65;6.45;;;14.20;99.90;;;;;;4966927;28;112880;-59
2022/01/10 01:43:45;;;;;;;40.22;8.52;;;14.30;99.90;;;;;;4966418;28;112609;-59
2022/01/10 01:46:11;;;;;;;29.20;6.50;;;14.20;99.90;;;;;;4966713;28;112738;-58
2022/01/10 01:48:37;;;;;;;27.10;6.85;;;14.30;99.90;;;;;;4977717;22;115141;-59
2022/01/10 01:51:03;;;;;;;32.38;6.35;;;14.30;99.90;;;;;;4954662;28;112909;-69
2022/01/10 01:53:30;;;;;;;33.67;6.05;;;14.30;99.90;;;;;;4965255;28;112577;-66
2022/01/10 01:55:57;;;;;;;32.15;7.22;;;14.30;99.90;;;;;;4951888;28;112326;-66
2022/01/10 01:58:24;;;;;;;28.73;6.43;;;14.30;99.90;;;;;;4948014;28;112750;-66
2022/01/10 02:00:50;;;;;;;36.53;6.90;;;14.30;99.90;;;;;;4946392;28;113160;-66
2022/01/10 02:03:16;;;;;;;37.13;7.03;;;14.30;99.90;;;;;;4929072;28;113676;-69
2022/01/10 02:05:42;;;;;;;38.75;6.95;;;14.30;99.90;;;;;;4947365;28;112697;-67
2022/01/10 02:08:11;;;;;;;43.45;7.82;;;14.30;99.90;;;;;;4943985;28;112596;-66
2022/01/10 02:10:38;;;;;;;40.25;7.65;;;14.20;99.90;;;;;;4966688;28;113164;-67
2022/01/10 02:13:03;;;;;;;36.70;6.82;;;14.20;99.90;;;;;;4965452;28;113559;-69
2022/01/10 02:15:43;;;;;;;39.45;8.20;;;14.20;99.90;;;;;;4969722;22;113068;-65
2022/01/10 02:18:09;;;;;;;47.38;8.13;;;14.20;99.90;;;;;;4944906;28;113087;-65
2022/01/10 02:20:35;;;;;;;32.10;7.25;;;14.20;99.90;;;;;;4928358;28;113580;-64
2022/01/10 02:23:01;;;;;;;30.52;7.38;;;14.20;99.90;;;;;;4967244;28;115641;-65
2022/01/10 02:25:28;;;;;;;36.25;8.18;;;14.20;99.90;;;;;;4996093;22;112411;-64
2022/01/10 02:27:55;;;;;;;43.33;7.95;;;14.20;99.90;;;;;;4951294;28;114777;-59
2022/01/10 02:30:21;;;;;;;42.20;9.25;;;14.20;99.90;;;;;;4984192;28;113170;-61
2022/01/10 02:32:47;;;;;;;46.47;8.65;;;14.20;99.90;;;;;;4974206;28;113417;-58
2022/01/10 02:35:28;;;;;;;40.38;7.25;;;14.20;99.90;;;;;;4965921;28;112398;-59
2022/01/10 02:37:55;;;;;;;48.53;8.93;;;14.20;99.90;;;;;;4948240;28;113059;-58
2022/01/10 02:40:25;;;;;;;42.67;7.57;;;14.20;99.90;;;;;;4946888;28;113240;-59
2022/01/10 02:42:52;;;;;;;33.33;8.13;;;14.20;99.90;;;;;;4946917;28;114705;-59
2022/01/10 02:45:18;;;;;;;38.10;8.10;;;14.20;99.90;;;;;;4979458;28;112401;-59
2022/01/10 02:47:44;;;;;;;43.45;9.00;;;14.20;99.90;;;;;;4985439;28;112867;-58
2022/01/10 02:50:12;;;;;;;39.42;9.30;;;14.20;99.90;;;;;;4984608;28;113104;-59
2022/01/10 02:52:38;;;;;;;44.08;9.30;;;14.20;99.90;;;;;;4984776;28;112381;-59
2022/01/10 02:55:06;;;;;;;45.65;8.82;;;14.20;99.90;;;;;;4967710;28;112706;-58
2022/01/10 02:57:34;;;;;;;47.80;8.15;;;14.20;99.90;;;;;;4985695;28;112921;-59
2022/01/10 03:00:08;;;;;;;37.67;7.68;;;14.20;99.90;;;;;;4983981;28;113783;-59
2022/01/10 03:02:35;;;;;;;40.45;9.50;;;14.20;99.90;;;;;;4985366;28;112595;-59
2022/01/10 03:05:01;;;;;;;46.78;9.52;;;14.20;99.90;;;;;;4985031;28;113117;-58
2022/01/10 03:07:28;;;;;;;52.33;11.00;;;14.20;99.90;;;;;;4984637;28;112559;-59
2022/01/10 03:09:54;;;;;;;38.05;9.20;;;14.30;99.90;;;;;;4983524;28;114133;-59
2022/01/10 03:12:20;;;;;;;49.50;9.82;;;14.20;99.90;;;;;;4983653;28;112909;-60
2022/01/10 03:14:46;;;;;;;44.97;9.98;;;14.20;99.90;;;;;;4985138;28;112393;-60
2022/01/10 03:17:13;;;;;;;50.97;10.55;;;14.20;99.90;;;;;;4965683;28;112725;-60
2022/01/10 03:19:40;;;;;;;57.17;10.27;;;14.20;99.90;;;;;;4984197;28;113558;-58
2022/01/10 03:22:07;;;;;;;46.70;9.35;;;14.20;99.90;;;;;;4967080;28;113252;-60
2022/01/10 03:24:33;;;;;;;42.83;8.25;;;14.20;99.90;;;;;;4965183;28;112263;-60
2022/01/10 03:27:00;;;;;;;39.38;9.60;;;14.20;99.90;;;;;;4964027;28;113505;-62
2022/01/10 03:29:25;;;;;;;31.48;7.22;;;14.20;99.90;;;;;;4946739;28;114206;-60
2022/01/10 03:31:51;;;;;;;47.47;8.13;;;14.20;99.90;;;;;;4963656;28;112791;-60
2022/01/10 03:34:17;;;;;;;21.98;6.70;;;14.20;99.90;;;;;;4963846;28;113137;-59
2022/01/10 03:36:44;;;;;;;35.55;6.70;;;14.10;99.90;;;;;;4964828;28;112610;-60
2022/01/10 03:39:11;;;;;;;30.90;6.88;;;14.10;99.90;;;;;;4964421;28;113249;-59
2022/01/10 03:41:37;;;;;;;34.95;6.13;;;14.10;99.90;;;;;;4964948;28;113902;-59
2022/01/10 03:44:04;;;;;;;31.25;5.75;;;14.00;99.90;;;;;;4965682;28;112652;-59
2022/01/10 03:46:32;;;;;;;29.10;5.50;;;14.00;99.90;;;;;;4965516;28;112356;-59
2022/01/10 03:48:59;;;;;;;33.63;5.75;;;14.00;99.90;;;;;;4963334;28;114099;-60
2022/01/10 03:51:25;;;;;;;28.33;5.63;;;14.00;99.90;;;;;;4963630;28;112674;-58
2022/01/10 03:53:51;;;;;;;37.15;6.50;;;14.00;99.90;;;;;;4965025;28;112522;-58
2022/01/10 03:56:17;;;;;;;32.63;6.55;;;13.90;99.90;;;;;;4964523;28;112515;-60
2022/01/10 03:58:42;;;;;;;29.52;5.72;;;13.90;99.90;;;;;;4963459;28;113262;-59
2022/01/10 04:01:09;;;;;;;30.27;6.00;;;13.90;99.90;;;;;;4963350;28;112826;-59
2022/01/10 04:03:37;;;;;;;31.27;6.60;;;13.90;99.90;;;;;;4947473;28;112711;-59
2022/01/10 04:06:04;;;;;;;32.42;6.40;;;13.90;99.90;;;;;;4947179;28;113030;-59
2022/01/10 04:08:29;;;;;;;27.33;5.72;;;14.00;99.90;;;;;;4963681;28;113152;-59
2022/01/10 04:10:55;;;;;;;32.78;6.45;;;14.00;99.90;;;;;;4963786;28;113636;-59
2022/01/10 04:13:23;;;;;;;28.17;6.38;;;14.00;99.90;;;;;;4963654;28;112571;-58
2022/01/10 04:15:49;;;;;;;26.60;6.53;;;14.00;99.90;;;;;;4965074;28;112494;-58
2022/01/10 04:18:15;;;;;;;25.67;5.88;;;14.00;99.90;;;;;;4976481;22;113215;-63
2022/01/10 04:20:43;;;;;;;19.55;4.55;;;14.00;99.90;;;;;;4964836;28;116125;-66
2022/01/10 04:23:09;;;;;;;19.52;4.35;;;14.00;99.90;;;;;;4984147;28;112331;-66
2022/01/10 04:25:35;;;;;;;18.60;4.22;;;14.00;99.90;;;;;;4955186;28;112472;-64
2022/01/10 04:28:00;;;;;;;23.85;4.95;;;14.10;99.90;;;;;;4963928;28;114061;-65
2022/01/10 04:30:26;;;;;;;14.23;4.53;;;14.10;99.90;;;;;;4963261;28;112739;-65
2022/01/10 04:32:52;;;;;;;23.92;4.97;;;14.10;99.90;;;;;;4964750;28;112576;-64
2022/01/10 04:35:18;;;;;;;16.67;4.57;;;14.10;99.90;;;;;;4943562;22;112679;-60
2022/01/10 04:37:44;;;;;;;17.20;4.70;;;14.10;99.90;;;;;;4961604;28;112961;-61
2022/01/10 04:40:11;;;;;;;24.10;5.80;;;14.10;99.90;;;;;;4957708;28;113095;-59
2022/01/10 04:42:37;;;;;;;30.60;5.22;;;14.10;99.90;;;;;;4944536;28;112766;-59
2022/01/10 04:45:04;;;;;;;26.67;5.93;;;14.10;99.90;;;;;;4944159;28;112729;-58
2022/01/10 04:47:29;;;;;;;21.65;4.43;;;14.10;99.90;;;;;;4942136;28;114433;-59
2022/01/10 04:52:33;;;;;;;23.77;5.65;;;14.00;99.90;;;;;;4982652;28;112552;-67
2022/01/10 04:55:00;;;;;;;31.38;5.50;;;14.00;99.90;;;;;;4960552;28;112435;-67
2022/01/10 04:57:26;;;;;;;16.40;4.28;;;14.00;99.90;;;;;;4929721;28;113625;-64
2022/01/10 04:59:53;;;;;;;24.23;5.55;;;14.00;99.90;;;;;;4993566;22;114014;-65
2022/01/10 05:02:19;;;;;;;27.15;6.00;;;14.10;99.90;;;;;;4963802;28;112949;-58
2022/01/10 05:04:45;;;;;;;22.98;6.13;;;14.10;99.90;;;;;;4983523;28;112873;-59
2022/01/10 05:07:11;;;;;;;29.92;6.13;;;14.10;99.90;;;;;;4965422;28;114176;-58
2022/01/10 05:09:36;;;;;;;22.65;5.45;;;14.10;99.90;;;;;;4962607;28;113057;-60
2022/01/10 05:12:03;;;;;;;23.75;5.28;;;14.10;99.90;;;;;;4966199;28;112526;-60
2022/01/10 05:14:29;;;;;;;29.08;7.60;;;14.10;99.90;;;;;;4967773;28;112482;-59
2022/01/10 05:16:55;;;;;;;26.20;5.95;;;14.10;99.90;;;;;;4965828;28;113915;-59
2022/01/10 05:19:20;;;;;;;26.70;5.72;;;14.10;99.90;;;;;;4983087;28;112260;-59
2022/01/10 05:21:46;;;;;;;23.67;6.28;;;14.20;99.90;;;;;;4986976;28;112282;-59
2022/01/10 05:24:12;;;;;;;22.45;5.43;;;14.20;99.90;;;;;;4987181;28;112381;-60
2022/01/10 05:26:38;;;;;;;31.92;7.32;;;14.20;99.90;;;;;;4967412;28;115080;-59
2022/01/10 05:29:04;;;;;;;27.90;5.95;;;14.20;99.90;;;;;;4984269;28;112989;-59
2022/01/10 05:31:33;;;;;;;30.30;8.57;;;14.20;99.90;;;;;;4951697;28;113448;-59
2022/01/10 05:33:59;;;;;;;25.60;7.97;;;14.20;99.90;;;;;;4986225;28;112780;-59
2022/01/10 05:36:25;;;;;;;34.30;6.15;;;14.20;99.90;;;;;;4968178;28;112942;-58
2022/01/10 05:38:51;;;;;;;35.15;7.10;;;14.20;99.90;;;;;;4986141;28;113451;-59
2022/01/10 05:41:17;;;;;;;28.52;7.82;;;14.10;99.90;;;;;;4985832;28;113306;-58
2022/01/10 05:43:43;;;;;;;36.08;8.38;;;14.20;99.90;;;;;;4987059;28;112551;-59
2022/01/10 05:46:12;;;;;;;25.42;6.50;;;14.20;99.90;;;;;;4985022;28;113102;-59
2022/01/10 05:48:40;;;;;;;29.08;7.22;;;14.20;99.90;;;;;;4985146;28;113739;-59
2022/01/10 05:51:07;;;;;;;30.17;9.15;;;14.20;99.90;;;;;;4987363;28;112355;-59
2022/01/10 05:53:33;;;;;;;33.88;7.68;;;14.20;99.90;;;;;;4968607;28;112860;-59
2022/01/10 05:55:59;;;;;;;30.80;8.77;;;14.20;99.90;;;;;;4967730;28;113960;-59
2022/01/10 05:58:27;;;;;;;36.35;7.50;;;14.20;99.90;;;;;;4964841;28;113739;-60
2022/01/10 06:00:53;;;;;;;36.15;8.02;;;14.20;99.90;;;;;;4954410;28;112754;-59
2022/01/10 06:03:19;;;;;;;29.05;5.95;;;14.10;99.90;;;;;;4986588;28;112698;-60
2022/01/10 06:05:45;;;;;;;22.77;5.55;;;14.10;99.90;;;;;;4985690;28;114232;-60
2022/01/10 06:08:11;;;;;;;31.02;5.88;;;14.10;99.90;;;;;;4967287;28;113601;-60
2022/01/10 06:10:37;;;;;;;22.35;4.60;;;14.10;99.90;;;;;;4985766;28;112661;-59
2022/01/10 06:13:03;;;;;;;17.73;4.97;;;14.10;99.90;;;;;;4986448;28;112468;-61
2022/01/10 06:15:29;;;;;;;30.35;7.53;;;14.10;99.90;;;;;;4985346;28;113250;-59
2022/01/10 06:17:55;;;;;;;31.52;5.70;;;14.10;99.90;;;;;;4986146;28;112762;-60
2022/01/10 06:20:21;;;;;;;25.70;6.60;;;14.10;99.90;;;;;;4986068;28;112409;-59
2022/01/10 06:22:46;;;;;;;30.83;6.80;;;14.10;99.90;;;;;;4985354;28;112361;-61
2022/01/10 06:25:15;;;;;;;39.90;6.95;;;14.10;99.90;;;;;;4985434;28;113296;-59
2022/01/10 06:27:41;;;;;;;38.77;8.67;;;14.10;99.90;;;;;;4985034;28;113521;-59
2022/01/10 06:30:09;;;;;;;40.35;7.93;;;14.10;99.90;;;;;;4968465;28;112457;-59
2022/01/10 06:32:35;;;;;;;29.10;6.43;;;14.10;99.90;;;;;;4985443;28;112499;-59
2022/01/10 06:35:00;;;;;;;30.75;6.63;;;14.10;99.90;;;;;;4967673;28;114275;-60
2022/01/10 06:37:26;;;;;;;33.70;7.45;;;14.10;99.90;;;;;;4968565;28;112987;-60
2022/01/10 06:39:53;;;;;;;24.33;5.97;;;14.10;99.90;;;;;;4966241;28;112644;-59
2022/01/10 06:42:19;;;;;;;30.17;6.28;;;14.10;99.90;;;;;;4966718;28;112285;-59
2022/01/10 06:44:45;;;;;;;29.77;7.63;;;14.10;99.90;;;;;;4965647;28;113043;-59
2022/01/10 06:47:12;;;;;;;29.45;7.43;;;14.10;99.90;;;;;;4946695;28;117142;-59
2022/01/10 06:49:38;;;;;;;21.65;5.43;;;14.10;99.90;;;;;;4969471;28;112640;-60
2022/01/10 06:52:04;;;;;;;32.25;6.32;;;14.20;99.90;;;;;;4985341;28;112796;-59
2022/01/10 06:54:30;;;;;;;32.95;7.05;;;14.20;99.90;;;;;;4978633;28;112678;-59
2022/01/10 06:56:59;;;;;;;36.42;8.60;;;14.20;99.90;;;;;;4964847;28;113653;-59
2022/01/10 06:59:28;;;;;;;29.98;6.00;;;14.20;99.90;;;;;;4964772;28;112681;-59
2022/01/10 07:01:58;;;;;;;37.60;10.83;;;14.20;99.90;;;;;;4965762;28;112342;-58
2022/01/10 07:04:26;;;;;;;27.48;7.28;;;14.20;99.90;;;;;;4964757;28;114321;-59
2022/01/10 07:06:52;;;;;;;26.50;7.13;;;14.20;99.90;;;;;;4965152;28;112940;-61
2022/01/10 07:09:19;;;;;;;27.70;7.30;;;14.20;99.90;;;;;;4966087;28;112290;-59
2022/01/10 07:11:45;;;;;;;30.38;6.53;;;14.20;99.90;;;;;;4964965;28;113004;-59
2022/01/10 07:14:12;;;;;;;43.75;8.70;;;14.20;99.90;;;;;;4964562;28;115630;-60
2022/01/10 07:16:38;;;;;;;41.28;8.10;;;14.20;99.90;;;;;;4964501;28;112470;-60
2022/01/10 07:19:06;;;;;;;29.33;7.13;;;14.20;99.90;;;;;;4965715;28;112606;-62
2022/01/10 07:21:37;;;;;;;37.45;7.45;;;14.20;99.90;;;;;;4976626;22;114351;-66
2022/01/10 07:24:04;;;;;;;42.78;7.50;;;14.20;99.90;;;;;;4966875;28;115221;-62
2022/01/10 07:26:32;;;;;;;28.42;7.93;;;14.20;99.90;;;;;;4980996;22;115173;-62
2022/01/10 07:28:58;;;;;;;30.10;8.35;;;14.20;99.90;;;;;;4957723;28;112467;-57
2022/01/10 07:31:24;;;;;;;30.25;7.65;;;14.20;99.90;;;;;;4964878;28;112417;-59
2022/01/10 07:33:50;;;;;;;32.38;7.93;;;14.20;99.90;;;;;;4964317;28;113582;-58
2022/01/10 07:36:16;;;;;;;38.55;8.23;;;14.20;99.90;;;;;;4962969;28;113501;-58
2022/01/10 07:38:41;;;;;;;24.10;7.00;;;14.20;99.90;;;;;;4964214;28;113411;-57
2022/01/10 07:41:08;;;;;;;30.83;5.82;;;14.20;99.90;;;;;;4947169;28;112496;-58
2022/01/10 07:43:35;;;;;;;20.80;5.68;;;14.10;99.90;;;;;;4971873;28;114370;-57
2022/01/10 07:46:01;;;;;;;24.85;4.93;;;14.10;99.90;;;;;;4978205;28;112784;-58
2022/01/10 07:48:29;;;;;;;30.52;5.28;;;14.20;99.90;;;;;;4967471;28;112637;-58
2022/01/10 07:50:55;;;;;;;23.33;6.07;;;14.10;99.90;;;;;;4978548;28;112996;-58
2022/01/10 07:53:21;;;;;;;28.85;6.40;;;14.10;99.90;;;;;;4972156;28;114279;-58
2022/01/10 07:55:47;;;;;;;25.08;5.68;;;14.10;99.90;;;;;;4970620;28;112462;-57
2022/01/10 07:58:13;;;;;;;19.42;5.22;;;14.10;99.90;;;;;;4980114;28;112681;-57
2022/01/10 08:00:39;;;;;;;22.88;5.03;;;14.10;99.90;;;;;;4966244;28;114822;-58
2022/01/10 08:03:06;;;;;;;20.80;6.60;;;14.10;99.90;;;;;;4969853;28;114120;-58
2022/01/10 08:05:32;;;;;;;20.92;5.07;;;14.10;99.90;;;;;;4955233;28;113210;-58
2022/01/10 08:07:58;;;;;;;19.95;4.95;;;14.00;99.90;;;;;;4978375;28;112340;-58
2022/01/10 08:10:26;;;;;;;18.05;5.70;;;14.00;99.90;;;;;;4967435;28;112390;-58
2022/01/10 08:12:52;;;;;;;20.85;6.05;;;14.00;99.90;;;;;;4960298;28;116597;-60
2022/01/10 08:15:19;;;;;;;21.67;5.55;;;14.00;99.90;;;;;;4972716;28;112635;-59
2022/01/10 08:17:45;;;;;;;20.17;6.82;;;13.90;99.90;;;;;;4972001;28;112342;-59
2022/01/10 08:20:12;;;;;;;24.00;6.93;;;13.90;99.90;;;;;;4966454;22;113454;-62
2022/01/10 08:22:38;;;;;;;21.80;7.50;;;13.90;99.90;;;;;;4975183;28;113002;-65
2022/01/10 08:25:07;;;;;;;18.80;5.85;;;13.90;99.90;;;;;;4956507;28;113598;-65
2022/01/10 08:27:33;;;;;;;27.30;6.17;;;13.90;99.90;;;;;;4964848;28;112622;-66
2022/01/10 08:29:59;;;;;;;16.58;4.57;;;13.90;99.90;;;;;;4979391;28;112547;-64
2022/01/10 08:32:25;;;;;;;23.63;5.63;;;13.90;99.90;;;;;;4978676;28;113766;-66
2022/01/10 08:34:51;;;;;;;18.73;4.60;;;13.90;99.90;;;;;;4977024;22;115344;-58
2022/01/10 08:37:17;;;;;;;13.80;5.55;;;13.90;99.90;;;;;;4974372;28;112460;-58
2022/01/10 08:39:49;;;;;;;22.13;5.22;;;13.90;99.90;;;;;;4970118;28;112506;-60
2022/01/10 08:42:18;;;;;;;12.68;4.43;;;13.90;99.90;;;;;;4993623;28;113193;-60
2022/01/10 08:44:44;;;;;;;;;;;13.90;99.90;;;;;;4988372;28;113766;-61
2022/01/10 08:47:10;;;;;;;14.05;5.63;;;13.90;99.90;;;;;;4975994;28;112813;-60
2022/01/10 08:49:36;;;;;;;12.88;5.45;;;13.90;99.90;;;;;;4998593;28;112413;-59
2022/01/10 08:52:02;;;;;;;15.15;6.05;;;13.90;99.90;;;;;;4980710;28;114240;-59
2022/01/10 08:54:27;;;;;;;18.70;5.30;;;13.90;99.90;;;;;;4992380;28;113711;-59
2022/01/10 08:56:53;;;;;;;9.95;5.00;;;13.90;99.90;;;;;;4986568;28;112634;-59
2022/01/10 08:59:20;;;;;;;16.00;5.35;;;13.90;99.90;;;;;;4998657;28;112572;-59
2022/01/10 09:01:46;;;;;;;16.90;5.32;;;14.00;99.90;;;;;;4986139;28;113195;-58
2022/01/10 09:04:16;;;;;;;13.85;5.13;;;14.00;99.90;;;;;;4973160;28;114311;-60
2022/01/10 09:06:46;;;;;;;16.55;5.85;;;14.00;99.90;;;;;;4995194;28;113162;-59
2022/01/10 09:09:13;;;;;;;16.58;6.10;;;14.10;99.90;;;;;;4976963;28;112497;-59
2022/01/10 09:11:40;;;;;;;13.57;5.45;;;14.10;99.90;;;;;;4985801;28;115710;-59
2022/01/10 09:14:06;;;;;;;11.18;5.45;;;14.20;99.90;;;;;;4987784;28;112639;-59
2022/01/10 09:16:32;;;;;;;13.88;5.25;;;14.20;99.90;;;;;;4975366;28;114533;-60
2022/01/10 09:18:58;;;;;;;21.20;6.38;;;14.30;99.90;;;;;;4986193;28;112994;-63
2022/01/10 09:21:25;;;;;;;17.15;6.30;;;14.30;99.90;;;;;;4996576;28;113156;-60
2022/01/10 09:23:51;;;;;;;22.48;7.93;;;14.40;99.90;;;;;;4986786;28;113726;-59
2022/01/10 09:26:16;;;;;;;20.20;7.45;;;14.40;99.90;;;;;;4990974;28;112390;-61
2022/01/10 09:28:45;;;;;;;19.35;5.82;;;14.50;99.90;;;;;;4982285;28;112585;-60
2022/01/10 09:31:12;;;;;;;18.00;4.90;;;14.50;99.90;;;;;;4993963;28;113309;-58
2022/01/10 09:33:39;;;;;;;25.40;6.82;;;14.60;99.90;;;;;;4984231;28;114124;-57
2022/01/10 09:36:06;;;;;;;17.95;8.48;;;14.70;99.90;;;;;;4942708;28;1496353;-58
2022/01/10 09:38:32;;;;;;;25.02;8.75;;;14.70;99.90;;;;;;4979906;28;112472;-60
2022/01/10 09:40:59;;;;;;;25.30;8.73;;;14.80;99.90;;;;;;4973763;28;113153;-60
2022/01/10 09:43:25;;;;;;;26.05;8.50;;;15.00;99.90;;;;;;4968100;28;113580;-58
2022/01/10 09:45:56;;;;;;;22.05;8.80;;;15.00;99.90;;;;;;4977726;28;112435;-57
2022/01/10 09:48:23;;;;;;;30.02;9.02;;;15.00;99.90;;;;;;4992996;28;112540;-62
2022/01/10 09:50:49;;;;;;;25.77;7.75;;;15.00;99.90;;;;;;4987425;28;113692;-63
2022/01/10 09:53:20;;;;;;;28.23;9.40;;;15.00;99.90;;;;;;4997900;28;112919;-58
2022/01/10 09:55:46;;;;;;;38.90;12.52;;;15.10;99.90;;;;;;4987879;28;112659;-60
2022/01/10 09:58:13;;;;;;;20.90;8.27;;;15.10;99.90;;;;;;4992818;28;112916;-61
2022/01/10 10:00:39;;;;;;;38.53;10.75;;;15.10;99.90;;;;;;4996631;28;113368;-63
2022/01/10 10:03:06;;;;;;;48.45;15.05;;;15.10;99.90;;;;;;4987407;28;112484;-60
2022/01/10 10:05:33;;;;;;;36.38;9.98;;;15.20;99.90;;;;;;4972087;28;112612;-60
2022/01/10 10:07:59;;;;;;;33.63;9.30;;;15.30;99.90;;;;;;4998032;28;112536;-59
2022/01/10 10:10:28;;;;;;;24.90;7.53;;;15.30;99.90;;;;;;4974217;28;113227;-60
2022/01/10 10:12:54;;;;;;;24.38;6.68;;;15.30;99.90;;;;;;4979834;28;112729;-59
2022/01/10 10:15:27;;;;;;;33.65;8.20;;;15.40;99.90;;;;;;5000957;28;112466;-57
2022/01/10 10:17:53;;;;;;;20.77;6.28;;;15.40;99.90;;;;;;4991805;28;112571;-60
2022/01/10 10:20:22;;;;;;;26.13;5.75;;;15.40;99.90;;;;;;4976688;28;115060;-58
2022/01/10 10:22:51;;;;;;;25.23;6.07;;;15.40;99.90;;;;;;4998373;28;113092;-58
2022/01/10 10:25:17;;;;;;;19.75;6.13;;;15.40;99.90;;;;;;4988421;28;112888;-59
2022/01/10 10:27:46;;;;;;;17.95;5.57;;;15.40;99.90;;;;;;4999261;28;112455;-59
2022/01/10 10:30:43;;;;;;;16.52;4.25;;;15.40;99.90;;;;;;4964406;28;116703;-60
2022/01/10 10:33:29;;;;;;;13.95;4.80;;;15.40;99.90;;;;;;4977968;28;113486;-59
2022/01/10 10:36:08;;;;;;;20.48;5.70;;;15.40;99.90;;;;;;4998442;28;112540;-58
2022/01/10 10:38:34;;;;;;;19.45;5.93;;;15.40;99.90;;;;;;4966980;28;112543;-61
2022/01/10 10:41:02;;;;;;;18.40;4.50;;;15.40;99.90;;;;;;4964814;28;113708;-58
2022/01/10 10:43:32;;;;;;;15.95;4.97;;;15.40;99.90;;;;;;5000079;28;112649;-58
2022/01/10 10:46:02;;;;;;;9.25;3.20;;;15.40;99.90;;;;;;4991618;28;112576;-61
2022/01/10 10:48:29;;;;;;;11.05;4.68;;;15.30;99.90;;;;;;4993330;28;112509;-59
2022/01/10 10:50:58;;;;;;;8.95;3.70;;;15.40;99.90;;;;;;4999049;28;115307;-59
2022/01/10 10:53:27;;;;;;;13.45;2.97;;;15.40;99.90;;;;;;4986563;28;113813;-59
2022/01/10 10:55:56;;;;;;;8.43;3.03;;;15.40;99.90;;;;;;4997907;28;112351;-59
2022/01/10 10:58:22;;;;;;;10.52;2.97;;;15.40;99.90;;;;;;4977940;28;112688;-59
2022/01/10 11:00:48;;;;;;;11.90;4.03;;;15.30;99.90;;;;;;4989868;28;113805;-59
2022/01/10 11:03:16;;;;;;;12.65;3.58;;;15.30;99.90;;;;;;4981827;28;115355;-58
2022/01/10 11:05:44;;;;;;;11.82;3.15;;;15.40;99.90;;;;;;4988544;28;112692;-58
2022/01/10 11:08:11;;;;;;;13.38;2.88;;;15.40;99.90;;;;;;4978311;28;113063;-59
2022/01/10 11:10:38;;;;;;;15.98;3.90;;;15.30;99.90;;;;;;4995187;28;113200;-58
2022/01/10 11:13:04;;;;;;;15.07;3.13;;;15.30;99.90;;;;;;4984670;28;114230;-57
2022/01/10 11:15:32;;;;;;;7.35;3.35;;;15.30;99.90;;;;;;5000683;28;112371;-59
2022/01/10 11:18:02;;;;;;;12.45;3.20;;;15.30;99.90;;;;;;4990541;28;113866;-59
2022/01/10 11:20:29;;;;;;;14.10;3.75;;;15.30;99.90;;;;;;4991962;28;114265;-60
2022/01/10 11:22:57;;;;;;;13.13;4.45;;;15.30;99.90;;;;;;4979793;28;113871;-60
2022/01/10 11:25:26;;;;;;;11.15;3.05;;;15.20;99.90;;;;;;4987575;28;112580;-60
2022/01/10 11:28:00;;;;;;;9.77;3.40;;;15.30;99.90;;;;;;4998093;28;112377;-60
2022/01/10 11:30:36;;;;;;;17.35;3.30;;;15.30;99.90;;;;;;4982160;28;114692;-60
2022/01/10 11:33:04;;;;;;;11.30;3.72;;;15.30;99.90;;;;;;4999101;28;112847;-59
2022/01/10 11:35:39;;;;;;;15.70;4.47;;;15.40;99.90;;;;;;4987276;28;112519;-59
2022/01/10 11:38:22;;;;;;;8.48;3.30;;;15.50;99.90;;;;;;4996342;28;112666;-60
2022/01/10 11:41:03;;;;;;;15.00;3.70;;;15.60;99.90;;;;;;4996002;28;114150;-57
2022/01/10 11:43:34;;;;;;;5.50;2.88;;;15.50;99.90;;;;;;4985165;28;112631;-60
2022/01/10 11:46:14;;;;;;;9.43;3.33;;;15.40;99.90;;;;;;4995242;28;112863;-59
2022/01/10 11:48:45;;;;;;;;;;;15.30;99.90;;;;;;4996869;28;112460;-59
2022/01/10 11:51:17;;;;;;;17.38;4.40;;;15.30;99.90;;;;;;4973849;28;114209;-60
2022/01/10 11:53:45;;;;;;;6.70;3.10;;;15.30;99.90;;;;;;4988199;28;112664;-60
2022/01/10 11:56:32;;;;;;;13.88;4.38;;;15.20;99.90;;;;;;4993893;28;112427;-60
2022/01/10 11:59:27;;;;;;;10.63;3.92;;;15.20;99.90;;;;;;4998872;28;112634;-60
2022/01/10 12:02:10;;;;;;;13.43;4.32;;;15.20;99.90;;;;;;4979025;28;114411;-60
2022/01/10 12:04:42;;;;;;;6.57;3.28;;;15.20;99.90;;;;;;4997531;28;114844;-57
2022/01/10 12:07:10;;;;;;;13.38;3.03;;;15.30;99.90;;;;;;4990642;28;112639;-58
2022/01/10 12:09:36;;;;;;;13.52;3.92;;;15.30;99.90;;;;;;4987616;28;112408;-61
2022/01/10 12:12:03;;;;;;;9.85;3.10;;;15.40;99.90;;;;;;4990694;28;113221;-60
2022/01/10 12:14:30;;;;;;;5.28;2.45;;;15.50;99.90;;;;;;4985896;28;112570;-61
2022/01/10 12:16:58;;;;;;;17.70;3.35;;;15.50;99.90;;;;;;4987775;28;112486;-61
2022/01/10 12:19:25;;;;;;;11.60;4.15;;;15.50;99.90;;;;;;4999216;28;112616;-61
2022/01/10 12:21:52;;;;;;;15.93;3.30;;;15.50;99.90;;;;;;4987055;28;113225;-61
2022/01/10 12:24:18;;;;;;;10.90;2.88;;;15.50;99.90;;;;;;4974484;28;113599;-59
2022/01/10 12:26:45;;;;;;;11.77;3.47;;;15.50;99.90;;;;;;4972588;28;112697;-63
2022/01/10 12:29:12;;;;;;;14.57;5.18;;;15.50;99.90;;;;;;4978201;28;113102;-63
2022/01/10 12:31:41;;;;;;;9.02;3.10;;;15.50;99.90;;;;;;4998178;28;113003;-64
2022/01/10 12:34:08;;;;;;;8.52;2.58;;;15.60;99.90;;;;;;4989953;28;112733;-65
2022/01/10 12:36:36;;;;;;;6.93;2.35;;;15.60;99.90;;;;;;4997308;28;112653;-64
2022/01/10 12:39:27;;;;;;;6.93;2.38;;;15.60;99.90;;;;;;4987846;28;112373;-65
2022/01/10 12:41:58;;;;;;;4.85;2.47;;;15.70;99.90;;;;;;4982721;28;113722;-63
2022/01/10 12:44:27;;;;;;;5.55;2.80;;;15.60;99.90;;;;;;4991030;28;114689;-64